createdAt,value
2018-08-12T00:00:35.066Z,68.50
2018-08-12T00:03:04.726Z,68.80
2018-08-12T00:05:33.937Z,69.00
2018-08-12T00:08:03.035Z,69.30
2018-08-12T00:10:32.143Z,70.00
2018-08-12T00:13:01.162Z,69.60
2018-08-12T00:15:30.462Z,69.70
2018-08-12T00:17:59.989Z,70.10
2018-08-12T00:20:29.122Z,70.30
2018-08-12T00:22:58.230Z,70.50
2018-08-12T00:25:27.564Z,70.80
2018-08-12T00:27:56.764Z,70.80
2018-08-12T00:30:25.912Z,70.90
2018-08-12T00:32:55.097Z,70.90
2018-08-12T00:35:24.435Z,70.30
2018-08-12T00:37:53.617Z,70.20
2018-08-12T00:40:22.610Z,69.80
2018-08-12T00:42:51.849Z,69.30
2018-08-12T00:45:21.720Z,69.30
2018-08-12T00:47:51.081Z,69.00
2018-08-12T00:50:20.431Z,69.00
2018-08-12T00:52:49.612Z,69.00
2018-08-12T00:55:19.170Z,68.90
2018-08-12T00:57:48.693Z,68.80
2018-08-12T01:00:19.943Z,68.70
2018-08-12T01:02:49.423Z,68.90
2018-08-12T01:05:19.497Z,69.10
2018-08-12T01:07:49.672Z,69.10
2018-08-12T01:10:19.449Z,69.30
2018-08-12T01:12:48.648Z,69.60
2018-08-12T01:15:20.198Z,69.40
2018-08-12T01:17:49.251Z,69.40
2018-08-12T01:20:24.218Z,69.50
2018-08-12T01:22:53.628Z,69.30
2018-08-12T01:25:23.264Z,68.90
2018-08-12T01:27:52.551Z,68.90
2018-08-12T01:30:22.452Z,68.70
2018-08-12T01:32:51.509Z,69.10
2018-08-12T01:35:20.593Z,69.10
2018-08-12T01:37:50.161Z,69.50
2018-08-12T01:40:19.699Z,69.20
2018-08-12T01:42:48.883Z,68.70
2018-08-12T01:45:19.583Z,68.40
2018-08-12T01:47:48.598Z,68.50
2018-08-12T01:50:18.927Z,68.40
2018-08-12T01:52:48.159Z,68.20
2018-08-12T01:55:17.916Z,68.30
2018-08-12T01:57:46.916Z,68.90
2018-08-12T02:00:18.338Z,68.40
2018-08-12T02:02:47.765Z,68.30
2018-08-12T02:05:17.725Z,68.50
2018-08-12T02:07:47.259Z,68.60
2018-08-12T02:10:16.450Z,68.50
2018-08-12T02:12:45.497Z,69.00
2018-08-12T02:15:14.585Z,69.00
2018-08-12T02:17:43.689Z,69.00
2018-08-12T02:20:13.158Z,69.10
2018-08-12T02:22:42.740Z,69.40
2018-08-12T02:25:12.446Z,70.10
2018-08-12T02:27:41.400Z,70.00
2018-08-12T02:30:12.265Z,70.00
2018-08-12T02:32:42.665Z,70.10
2018-08-12T02:35:12.083Z,70.40
2018-08-12T02:37:41.793Z,70.40
2018-08-12T02:40:11.296Z,70.70
2018-08-12T02:42:40.705Z,70.80
2018-08-12T02:45:12.745Z,70.70
2018-08-12T02:47:41.920Z,70.90
2018-08-12T02:50:11.160Z,71.10
2018-08-12T02:52:40.213Z,71.20
2018-08-12T02:55:10.383Z,71.20
2018-08-12T02:57:39.527Z,71.10
2018-08-12T03:00:09.538Z,71.20
2018-08-12T03:02:38.741Z,71.10
2018-08-12T03:05:07.822Z,70.90
2018-08-12T03:07:37.108Z,70.80
2018-08-12T03:10:06.522Z,70.40
2018-08-12T03:12:35.514Z,70.60
2018-08-12T03:15:05.972Z,70.30
2018-08-12T03:17:35.213Z,70.40
2018-08-12T03:20:05.790Z,70.20
2018-08-12T03:22:35.156Z,70.40
2018-08-12T03:25:04.920Z,70.40
2018-08-12T03:27:33.952Z,70.40
2018-08-12T03:30:03.345Z,70.40
2018-08-12T03:32:32.494Z,70.30
2018-08-12T03:35:01.591Z,70.20
2018-08-12T03:37:30.765Z,70.00
2018-08-12T03:39:59.899Z,70.10
2018-08-12T03:42:29.059Z,70.00
2018-08-12T03:44:58.380Z,70.10
2018-08-12T03:47:27.326Z,70.00
2018-08-12T03:49:56.429Z,69.90
2018-08-12T03:52:25.537Z,70.10
2018-08-12T03:54:54.981Z,70.20
2018-08-12T03:57:24.248Z,70.70
2018-08-12T03:59:53.534Z,70.70
2018-08-12T04:02:22.769Z,70.60
2018-08-12T04:04:51.946Z,70.60
2018-08-12T04:07:21.116Z,70.40
2018-08-12T04:09:50.339Z,70.60
2018-08-12T04:12:19.457Z,70.20
2018-08-12T04:14:48.401Z,70.20
2018-08-12T04:17:17.591Z,70.20
2018-08-12T04:19:46.609Z,70.30
2018-08-12T04:22:15.665Z,70.20
2018-08-12T04:24:44.804Z,70.30
2018-08-12T04:27:13.726Z,70.40
2018-08-12T04:29:42.746Z,70.80
2018-08-12T04:32:12.220Z,71.20
2018-08-12T04:34:41.454Z,70.40
2018-08-12T04:37:10.653Z,70.30
2018-08-12T04:39:39.840Z,70.60
2018-08-12T04:42:08.957Z,70.60
2018-08-12T04:44:38.138Z,70.70
2018-08-12T04:47:07.565Z,71.00
2018-08-12T04:49:36.521Z,69.50
2018-08-12T04:52:05.649Z,65.90
2018-08-12T04:54:34.630Z,62.50
2018-08-12T04:57:03.645Z,59.80
2018-08-12T04:59:32.714Z,56.20
2018-08-12T05:02:02.041Z,54.00
2018-08-12T05:04:31.379Z,52.10
2018-08-12T05:07:00.605Z,50.10
2018-08-12T05:09:29.777Z,48.60
2018-08-12T05:11:59.013Z,47.10
2018-08-12T05:14:28.185Z,44.80
2018-08-12T05:16:57.389Z,44.10
2018-08-12T05:19:26.478Z,43.50
2018-08-12T05:21:55.575Z,43.00
2018-08-12T05:24:24.671Z,41.90
2018-08-12T05:26:53.752Z,41.80
2018-08-12T05:29:22.985Z,41.80
2018-08-12T05:31:52.067Z,41.80
2018-08-12T05:34:21.135Z,42.20
2018-08-12T05:36:50.143Z,42.60
2018-08-12T05:39:19.355Z,42.70
2018-08-12T05:41:48.525Z,42.70
2018-08-12T05:44:17.827Z,42.90
2018-08-12T05:46:46.824Z,42.80
2018-08-12T05:49:15.816Z,42.90
2018-08-12T05:51:45.083Z,43.40
2018-08-12T05:54:14.342Z,43.20
2018-08-12T05:56:43.790Z,42.50
2018-08-12T05:59:12.958Z,42.20
2018-08-12T06:01:42.253Z,42.20
2018-08-12T06:04:11.304Z,41.60
2018-08-12T06:06:40.272Z,41.60
2018-08-12T06:09:10.659Z,41.80
2018-08-12T06:11:39.706Z,41.80
2018-08-12T06:14:09.300Z,42.30
2018-08-12T06:16:38.292Z,43.00
2018-08-12T06:19:07.371Z,43.00
2018-08-12T06:21:36.484Z,42.50
2018-08-12T06:24:05.662Z,42.50
2018-08-12T06:26:34.883Z,43.20
2018-08-12T06:29:04.093Z,43.70
2018-08-12T06:31:33.855Z,43.70
2018-08-12T06:34:03.011Z,44.10
2018-08-12T06:36:32.075Z,44.00
2018-08-12T06:39:01.305Z,44.10
2018-08-12T06:41:31.801Z,44.00
2018-08-12T06:44:00.931Z,44.10
2018-08-12T06:46:30.229Z,44.00
2018-08-12T06:49:00.191Z,44.40
2018-08-12T06:51:29.478Z,43.50
2018-08-12T06:53:59.730Z,43.40
2018-08-12T06:56:29.184Z,43.70
2018-08-12T06:58:58.361Z,43.30
2018-08-12T07:01:27.894Z,41.60
2018-08-12T07:03:56.973Z,38.00
2018-08-12T07:06:26.138Z,37.00
2018-08-12T07:08:55.441Z,35.50
2018-08-12T07:11:24.560Z,33.00
2018-08-12T07:13:53.814Z,32.10
2018-08-12T07:16:23.344Z,30.50
2018-08-12T07:18:52.440Z,30.00
2018-08-12T07:21:21.623Z,29.50
2018-08-12T07:23:50.929Z,28.60
2018-08-12T07:26:20.500Z,28.70
2018-08-12T07:28:49.597Z,29.10
2018-08-12T07:31:18.821Z,28.10
2018-08-12T07:33:48.992Z,27.60
2018-08-12T07:36:18.101Z,27.10
2018-08-12T07:38:47.373Z,27.20
2018-08-12T07:41:16.739Z,27.20
2018-08-12T07:43:45.789Z,26.30
2018-08-12T07:46:15.115Z,26.00
2018-08-12T08:01:48.389Z,26.00
2018-08-12T08:04:17.793Z,25.80
2018-08-12T08:06:46.920Z,25.90
2018-08-12T08:09:16.070Z,26.00
2018-08-12T08:11:45.060Z,26.20
2018-08-12T08:14:14.275Z,26.20
2018-08-12T08:16:43.558Z,26.10
2018-08-12T08:19:12.765Z,25.60
2018-08-12T08:21:41.954Z,25.60
2018-08-12T08:24:11.144Z,25.50
2018-08-12T08:26:40.335Z,25.40
2018-08-12T08:29:09.534Z,25.70
2018-08-12T08:31:38.863Z,25.70
2018-08-12T08:34:07.914Z,24.90
2018-08-12T08:36:37.158Z,24.80
2018-08-12T08:39:09.794Z,24.30
2018-08-12T08:41:39.236Z,23.80
2018-08-12T08:44:08.479Z,23.90
2018-08-12T08:46:37.798Z,23.70
2018-08-12T08:49:07.161Z,23.70
2018-08-12T08:51:36.282Z,23.30
2018-08-12T08:54:05.509Z,22.10
2018-08-12T08:56:34.722Z,22.00
2018-08-12T08:59:03.942Z,21.30
2018-08-12T09:01:32.883Z,21.10
2018-08-12T09:04:02.098Z,20.90
2018-08-12T09:06:31.381Z,20.80
2018-08-12T09:09:01.047Z,20.50
2018-08-12T09:11:29.979Z,21.00
2018-08-12T09:13:59.189Z,21.00
2018-08-12T09:16:28.643Z,21.00
2018-08-12T09:18:57.930Z,21.10
2018-08-12T09:21:26.978Z,20.90
2018-08-12T09:23:56.082Z,20.50
2018-08-12T09:26:25.714Z,20.40
2018-08-12T09:28:55.025Z,20.40
2018-08-12T09:31:24.070Z,20.00
2018-08-12T09:33:53.366Z,19.80
2018-08-12T09:36:22.787Z,20.50
2018-08-12T09:38:51.744Z,20.70
2018-08-12T09:41:21.034Z,20.00
2018-08-12T09:43:50.054Z,19.70
2018-08-12T09:46:19.281Z,19.30
2018-08-12T09:48:48.538Z,19.10
2018-08-12T09:51:17.535Z,18.90
2018-08-12T09:53:46.725Z,18.60
2018-08-12T09:56:16.052Z,18.40
2018-08-12T09:58:45.122Z,18.70
2018-08-12T10:01:14.127Z,18.40
2018-08-12T10:03:43.242Z,18.10
2018-08-12T10:06:12.365Z,18.40
2018-08-12T10:08:41.543Z,18.70
2018-08-12T10:11:10.623Z,18.10
2018-08-12T10:13:39.817Z,17.50
2018-08-12T10:16:09.004Z,17.60
2018-08-12T10:18:38.356Z,17.30
2018-08-12T10:21:07.666Z,17.10
2018-08-12T10:23:36.828Z,17.20
2018-08-12T10:26:06.062Z,17.10
2018-08-12T10:28:35.357Z,17.20
2018-08-12T10:31:04.691Z,17.30
2018-08-12T10:33:33.902Z,17.50
2018-08-12T10:36:03.027Z,18.10
2018-08-12T10:38:32.049Z,18.30
2018-08-12T10:41:01.327Z,17.70
2018-08-12T10:43:30.471Z,17.50
2018-08-12T10:45:59.455Z,18.20
2018-08-12T10:48:28.642Z,18.50
2018-08-12T10:50:57.697Z,19.00
2018-08-12T10:53:27.124Z,19.90
2018-08-12T10:55:56.356Z,20.00
2018-08-12T10:58:25.544Z,19.70
2018-08-12T11:00:54.670Z,19.50
2018-08-12T11:03:23.730Z,19.70
2018-08-12T11:05:52.893Z,19.60
2018-08-12T11:08:22.202Z,19.80
2018-08-12T11:10:51.525Z,20.50
2018-08-12T11:13:20.569Z,20.90
2018-08-12T11:15:50.338Z,21.60
2018-08-12T11:18:19.409Z,22.60
2018-08-12T11:20:48.491Z,23.80
2018-08-12T11:23:17.534Z,25.10
2018-08-12T11:38:51.099Z,25.60
2018-08-12T11:41:20.272Z,26.10
2018-08-12T11:43:49.669Z,27.60
2018-08-12T11:46:18.913Z,27.30
2018-08-12T11:48:48.505Z,26.90
2018-08-12T11:51:17.667Z,27.00
2018-08-12T11:53:46.715Z,27.20
2018-08-12T11:56:15.757Z,27.20
2018-08-12T11:58:45.782Z,27.40
2018-08-12T12:01:15.052Z,27.20
2018-08-12T12:03:44.281Z,27.10
2018-08-12T12:06:13.347Z,27.40
2018-08-12T12:08:42.710Z,26.90
2018-08-12T12:11:12.225Z,26.70
2018-08-12T12:13:41.739Z,26.90
2018-08-12T12:16:11.278Z,26.80
2018-08-12T12:18:40.418Z,26.50
2018-08-12T12:21:10.520Z,26.80
2018-08-12T12:23:40.401Z,26.50
2018-08-12T12:26:09.624Z,26.40
2018-08-12T12:28:38.883Z,26.10
2018-08-12T12:31:10.903Z,26.00
2018-08-12T12:33:39.959Z,26.00
2018-08-12T12:36:09.153Z,26.00
2018-08-12T12:38:38.486Z,26.10
2018-08-12T12:41:14.386Z,25.80
2018-08-12T12:43:43.489Z,25.90
2018-08-12T12:46:12.630Z,25.60
2018-08-12T12:48:41.797Z,26.00
2018-08-12T12:51:10.961Z,25.90
2018-08-12T12:53:40.076Z,26.00
2018-08-12T12:56:09.369Z,26.40
2018-08-12T12:58:38.576Z,25.90
2018-08-12T13:01:07.872Z,25.80
2018-08-12T13:03:37.002Z,26.00
2018-08-12T13:06:06.162Z,26.00
2018-08-12T13:08:36.289Z,26.00
2018-08-12T13:11:05.941Z,25.90
2018-08-12T13:13:35.274Z,25.90
2018-08-12T13:16:04.585Z,25.60
2018-08-12T13:18:33.798Z,25.10
2018-08-12T13:21:02.773Z,25.30
2018-08-12T13:23:31.914Z,25.70
2018-08-12T13:26:01.069Z,26.00
2018-08-12T13:28:30.239Z,25.90
2018-08-12T13:30:59.479Z,25.90
2018-08-12T13:33:28.748Z,26.00
2018-08-12T13:35:58.194Z,25.80
2018-08-12T13:38:27.239Z,25.50
2018-08-12T13:40:56.477Z,25.80
2018-08-12T13:43:25.521Z,25.80
2018-08-12T13:45:54.835Z,25.40
2018-08-12T13:48:23.805Z,25.70
2018-08-12T13:50:53.255Z,25.80
2018-08-12T13:53:22.533Z,25.50
2018-08-12T13:55:51.718Z,25.50
2018-08-12T13:58:20.927Z,25.20
2018-08-12T14:00:50.255Z,25.50
2018-08-12T14:03:19.647Z,25.30
2018-08-12T14:05:48.804Z,25.30
2018-08-12T14:08:17.923Z,25.10
2018-08-12T14:10:47.135Z,25.40
2018-08-12T14:13:16.487Z,25.20
2018-08-12T14:15:45.776Z,25.20
2018-08-12T14:18:15.200Z,25.30
2018-08-12T14:20:44.441Z,25.10
2018-08-12T14:23:13.493Z,25.50
2018-08-12T14:25:42.667Z,25.70
2018-08-12T14:28:13.247Z,25.20
2018-08-12T14:30:42.412Z,25.10
2018-08-12T14:33:11.821Z,25.80
2018-08-12T14:35:41.012Z,25.50
2018-08-12T14:38:10.238Z,25.60
2018-08-12T14:40:39.502Z,25.60
2018-08-12T14:43:08.645Z,25.50
2018-08-12T14:45:37.649Z,25.20
2018-08-12T14:48:07.099Z,25.00
2018-08-12T14:50:36.393Z,25.40
2018-08-12T14:53:05.379Z,25.20
2018-08-12T14:55:34.996Z,25.00
2018-08-12T14:58:04.470Z,24.90
2018-08-12T15:00:33.809Z,24.80
2018-08-12T15:03:02.994Z,24.60
2018-08-12T15:05:32.121Z,24.60
2018-08-12T15:08:01.199Z,24.50
2018-08-12T15:10:30.384Z,24.70
2018-08-12T15:12:59.557Z,24.50
2018-08-12T15:15:28.573Z,24.20
2018-08-12T15:17:57.706Z,24.30
2018-08-12T15:20:26.986Z,24.30
2018-08-12T15:22:56.109Z,24.30
2018-08-12T15:25:25.344Z,24.20
2018-08-12T15:27:54.431Z,24.30
2018-08-12T15:30:23.527Z,24.60
2018-08-12T15:32:52.729Z,24.60
2018-08-12T15:35:21.930Z,24.60
2018-08-12T15:37:51.050Z,24.60
2018-08-12T15:40:20.213Z,24.80
2018-08-12T15:42:49.230Z,24.80
2018-08-12T15:45:18.743Z,24.80
2018-08-12T15:47:48.194Z,24.90
2018-08-12T15:50:17.331Z,25.10
2018-08-12T15:52:47.002Z,24.50
2018-08-12T15:55:16.488Z,24.50
2018-08-12T15:57:45.811Z,24.30
2018-08-12T16:00:18.282Z,24.00
2018-08-12T16:02:47.492Z,23.70
2018-08-12T16:05:16.489Z,23.80
2018-08-12T16:07:46.884Z,23.80
2018-08-12T16:10:19.163Z,23.90
2018-08-12T16:12:49.487Z,23.90
2018-08-12T16:15:18.800Z,23.90
2018-08-12T16:17:48.005Z,24.30
2018-08-12T16:20:17.202Z,24.00
2018-08-12T16:22:53.084Z,23.70
2018-08-12T16:25:22.793Z,24.10
2018-08-12T16:28:00.566Z,24.00
2018-08-12T16:30:29.996Z,24.20
2018-08-12T16:32:59.250Z,24.40
2018-08-12T16:35:28.255Z,24.30
2018-08-12T16:37:57.260Z,24.50
2018-08-12T16:40:26.565Z,24.80
2018-08-12T16:42:55.661Z,24.70
2018-08-12T16:45:25.042Z,25.20
2018-08-12T16:47:54.140Z,24.90
2018-08-12T16:50:24.318Z,24.50
2018-08-12T16:52:53.454Z,24.90
2018-08-12T16:55:22.540Z,25.20
2018-08-12T16:57:51.674Z,25.30
2018-08-12T17:00:22.305Z,25.50
2018-08-12T17:02:51.606Z,25.70
2018-08-12T17:05:22.323Z,25.90
2018-08-12T17:07:51.787Z,26.00
2018-08-12T17:10:21.306Z,26.20
2018-08-12T17:12:50.573Z,26.40
2018-08-12T17:15:20.987Z,26.70
2018-08-12T17:17:50.474Z,26.60
2018-08-12T17:20:20.943Z,26.80
2018-08-12T17:22:50.482Z,26.80
2018-08-12T17:25:19.850Z,26.90
2018-08-12T17:27:48.939Z,27.10
2018-08-12T17:30:18.316Z,27.20
2018-08-12T17:32:47.341Z,27.20
2018-08-12T17:35:16.644Z,27.50
2018-08-12T17:37:46.325Z,27.90
2018-08-12T17:40:16.233Z,27.60
2018-08-12T17:42:45.361Z,27.70
2018-08-12T17:45:15.041Z,28.00
2018-08-12T17:47:44.232Z,28.10
2018-08-12T17:50:15.163Z,28.20
2018-08-12T17:52:44.212Z,28.40
2018-08-12T17:55:13.502Z,28.70
2018-08-12T17:57:42.688Z,28.90
2018-08-12T18:00:14.514Z,29.00
2018-08-12T18:02:43.540Z,28.90
2018-08-12T18:05:12.780Z,28.90
2018-08-12T18:07:42.160Z,29.10
2018-08-12T18:10:11.360Z,29.30
2018-08-12T18:12:40.655Z,29.30
2018-08-12T18:15:11.298Z,29.40
2018-08-12T18:17:41.188Z,29.20
2018-08-12T18:20:10.589Z,29.30
2018-08-12T18:22:39.796Z,29.40
2018-08-12T18:25:10.556Z,29.50
2018-08-12T18:27:39.831Z,29.70
2018-08-12T18:30:10.918Z,29.60
2018-08-12T18:32:40.206Z,29.80
2018-08-12T18:35:10.138Z,30.00
2018-08-12T18:37:39.416Z,30.20
2018-08-12T18:40:09.956Z,30.30
2018-08-12T18:42:39.089Z,30.80
2018-08-12T18:45:08.656Z,30.90
2018-08-12T18:47:37.790Z,31.20
2018-08-12T18:50:08.323Z,31.30
2018-08-12T18:52:37.518Z,31.50
2018-08-12T18:55:07.804Z,31.50
2018-08-12T18:57:37.060Z,31.40
2018-08-12T19:00:07.842Z,31.50
2018-08-12T19:02:36.983Z,31.80
2018-08-12T19:05:07.257Z,31.90
2018-08-12T19:07:36.572Z,32.00
2018-08-12T19:10:07.026Z,32.00
2018-08-12T19:12:36.338Z,32.30
2018-08-12T19:15:07.210Z,32.90
2018-08-12T19:17:36.517Z,32.90
2018-08-12T19:20:06.208Z,33.30
2018-08-12T19:22:35.686Z,33.30
2018-08-12T19:25:04.952Z,33.40
2018-08-12T19:27:34.272Z,33.50
2018-08-12T19:30:03.726Z,33.70
2018-08-12T19:32:32.837Z,33.80
2018-08-12T19:35:02.034Z,34.20
2018-08-12T19:37:31.255Z,34.40
2018-08-12T19:40:00.789Z,34.70
2018-08-12T19:42:29.993Z,34.90
2018-08-12T19:45:06.826Z,35.10
2018-08-12T19:47:38.897Z,35.30
2018-08-12T19:50:08.333Z,35.40
2018-08-12T19:52:37.717Z,35.90
2018-08-12T19:55:07.509Z,36.00
2018-08-12T19:57:36.899Z,36.30
2018-08-12T20:00:08.125Z,36.40
2018-08-12T20:02:37.317Z,36.60
2018-08-12T20:05:06.495Z,36.60
2018-08-12T20:07:35.614Z,36.90
2018-08-12T20:10:05.420Z,37.20
2018-08-12T20:12:34.628Z,37.10
2018-08-12T20:15:03.845Z,37.50
2018-08-12T20:17:32.809Z,37.80
2018-08-12T20:20:02.127Z,38.40
2018-08-12T20:22:31.326Z,38.30
2018-08-12T20:25:00.539Z,38.60
2018-08-12T20:27:29.896Z,39.30
2018-08-12T20:29:59.109Z,38.80
2018-08-12T20:32:28.525Z,38.70
2018-08-12T20:34:57.897Z,38.80
2018-08-12T20:37:27.087Z,39.10
2018-08-12T20:39:56.480Z,39.30
2018-08-12T20:42:26.647Z,39.60
2018-08-12T20:44:55.754Z,39.60
2018-08-12T20:47:25.035Z,40.00
2018-08-12T20:49:54.003Z,40.50
2018-08-12T20:52:23.210Z,41.00
2018-08-12T20:54:52.266Z,41.10
2018-08-12T20:57:21.695Z,41.30
2018-08-12T20:59:50.697Z,41.60
2018-08-12T21:02:19.977Z,41.80
2018-08-12T21:04:49.116Z,42.00
2018-08-12T21:07:18.469Z,42.20
2018-08-12T21:09:47.473Z,42.30
2018-08-12T21:12:16.703Z,42.40
2018-08-12T21:14:45.766Z,42.60
2018-08-12T21:17:14.837Z,42.60
2018-08-12T21:19:44.120Z,43.00
2018-08-12T21:22:13.427Z,43.10
2018-08-12T21:24:42.537Z,43.70
2018-08-12T21:27:11.644Z,44.60
2018-08-12T21:29:40.745Z,44.60
2018-08-12T21:32:09.933Z,45.00
2018-08-12T21:34:39.231Z,45.20
2018-08-12T21:37:08.458Z,45.50
2018-08-12T21:39:37.661Z,45.40
2018-08-12T21:42:06.914Z,45.30
2018-08-12T21:44:36.023Z,45.30
2018-08-12T21:47:05.379Z,45.10
2018-08-12T21:49:34.445Z,45.20
2018-08-12T21:52:03.782Z,45.30
2018-08-12T21:54:33.027Z,45.40
2018-08-12T21:57:02.097Z,45.50
2018-08-12T21:59:32.028Z,46.10
2018-08-12T22:02:01.319Z,45.30
2018-08-12T22:04:30.506Z,45.20
2018-08-12T22:06:59.643Z,45.40
2018-08-12T22:09:28.721Z,45.40
2018-08-12T22:11:57.804Z,45.60
2018-08-12T22:14:26.976Z,45.60
2018-08-12T22:16:56.089Z,45.70
2018-08-12T22:19:25.307Z,45.80
2018-08-12T22:21:54.376Z,45.90
2018-08-12T22:24:23.805Z,45.80
2018-08-12T22:26:52.842Z,45.70
2018-08-12T22:29:21.949Z,45.90
2018-08-12T22:31:51.073Z,45.70
2018-08-12T22:34:20.192Z,45.80
2018-08-12T22:36:48.670Z,45.90
2018-08-12T22:39:17.096Z,45.90
2018-08-12T22:41:45.622Z,46.20
2018-08-12T22:44:14.120Z,46.40
2018-08-12T22:46:42.578Z,46.20
2018-08-12T22:49:11.005Z,46.30
2018-08-12T22:51:39.488Z,46.50
2018-08-12T22:54:07.925Z,46.20
2018-08-12T22:56:36.447Z,45.90
2018-08-12T22:59:05.104Z,45.60
2018-08-12T23:01:33.642Z,45.60
2018-08-12T23:04:02.246Z,45.80
2018-08-12T23:06:30.991Z,46.20
2018-08-12T23:08:59.672Z,47.00
2018-08-12T23:11:28.171Z,46.50
2018-08-12T23:13:56.613Z,46.10
2018-08-12T23:16:36.296Z,45.80
2018-08-12T23:19:04.735Z,45.70
2018-08-12T23:21:33.262Z,46.20
2018-08-12T23:24:01.705Z,46.50
2018-08-12T23:26:30.146Z,47.50
2018-08-12T23:28:58.909Z,47.10
2018-08-12T23:31:27.404Z,47.20
2018-08-12T23:33:55.938Z,47.20
2018-08-12T23:36:24.426Z,47.60
2018-08-12T23:38:52.991Z,47.60
2018-08-12T23:41:21.528Z,47.80
2018-08-12T23:43:50.053Z,48.20
2018-08-12T23:46:18.513Z,48.50
2018-08-12T23:48:46.936Z,48.90
2018-08-12T23:51:15.373Z,48.90
2018-08-12T23:53:44.037Z,48.90
2018-08-12T23:56:12.480Z,49.10
2018-08-12T23:58:40.958Z,49.20
